sensor_id;sensor_type;location;lat;lon;timestamp;temperature;humidity
29003;DHT22;16102;57.138;-2.118;2022-10-16T00:01:08;9.60;99.90
29003;DHT22;16102;57.138;-2.118;2022-10-16T00:03:36;9.60;99.90
29003;DHT22;16102;57.138;-2.118;2022-10-16T00:06:03;9.60;99.90
29003;DHT22;16102;57.138;-2.118;2022-10-16T00:08:31;9.60;99.90
29003;DHT22;16102;57.138;-2.118;2022-10-16T00:11:03;9.60;99.90
29003;DHT22;16102;57.138;-2.118;2022-10-16T00:13:31;9.60;99.90
29003;DHT22;16102;57.138;-2.118;2022-10-16T00:15:59;9.50;99.90
29003;DHT22;16102;57.138;-2.118;2022-10-16T00:18:27;9.50;99.90
29003;DHT22;16102;57.138;-2.118;2022-10-16T00:20:54;9.50;99.90
29003;DHT22;16102;57.138;-2.118;2022-10-16T00:23:22;9.40;99.90
29003;DHT22;16102;57.138;-2.118;2022-10-16T00:26:00;9.40;99.90
29003;DHT22;16102;57.138;-2.118;2022-10-16T00:28:27;9.50;99.90
29003;DHT22;16102;57.138;-2.118;2022-10-16T00:30:54;9.40;99.90
29003;DHT22;16102;57.138;-2.118;2022-10-16T00:33:22;9.40;99.90
29003;DHT22;16102;57.138;-2.118;2022-10-16T00:35:49;9.40;99.90
29003;DHT22;16102;57.138;-2.118;2022-10-16T00:38:16;9.40;99.90
29003;DHT22;16102;57.138;-2.118;2022-10-16T00:40:43;9.40;99.90
29003;DHT22;16102;57.138;-2.118;2022-10-16T00:43:45;9.40;99.90
29003;DHT22;16102;57.138;-2.118;2022-10-16T00:46:22;9.30;99.90
29003;DHT22;16102;57.138;-2.118;2022-10-16T00:49:10;9.30;99.90
29003;DHT22;16102;57.138;-2.118;2022-10-16T00:51:52;9.30;99.90
29003;DHT22;16102;57.138;-2.118;2022-10-16T00:54:26;9.20;99.90
29003;DHT22;16102;57.138;-2.118;2022-10-16T00:56:55;9.20;99.90
29003;DHT22;16102;57.138;-2.118;2022-10-16T00:59:27;9.10;99.90
29003;DHT22;16102;57.138;-2.118;2022-10-16T01:01:55;9.10;99.90
29003;DHT22;16102;57.138;-2.118;2022-10-16T01:04:23;9.00;99.90
29003;DHT22;16102;57.138;-2.118;2022-10-16T01:15:10;8.80;99.90
29003;DHT22;16102;57.138;-2.118;2022-10-16T01:31:38;8.80;1.00
29003;DHT22;16102;57.138;-2.118;2022-10-16T01:34:14;8.80;1.00
29003;DHT22;16102;57.138;-2.118;2022-10-16T01:36:46;8.80;1.00
29003;DHT22;16102;57.138;-2.118;2022-10-16T01:39:16;8.80;1.00
29003;DHT22;16102;57.138;-2.118;2022-10-16T01:41:50;8.80;1.00
29003;DHT22;16102;57.138;-2.118;2022-10-16T01:44:25;8.90;1.00
29003;DHT22;16102;57.138;-2.118;2022-10-16T01:46:55;8.90;1.00
29003;DHT22;16102;57.138;-2.118;2022-10-16T01:49:24;8.90;1.00
29003;DHT22;16102;57.138;-2.118;2022-10-16T01:51:56;8.90;1.00
29003;DHT22;16102;57.138;-2.118;2022-10-16T01:54:32;8.90;1.00
29003;DHT22;16102;57.138;-2.118;2022-10-16T01:57:01;8.80;1.00
29003;DHT22;16102;57.138;-2.118;2022-10-16T01:59:31;8.80;1.00
29003;DHT22;16102;57.138;-2.118;2022-10-16T02:02:01;8.80;1.00
29003;DHT22;16102;57.138;-2.118;2022-10-16T02:04:34;8.70;1.00
29003;DHT22;16102;57.138;-2.118;2022-10-16T02:07:03;8.70;1.00
29003;DHT22;16102;57.138;-2.118;2022-10-16T02:09:33;8.70;1.00
29003;DHT22;16102;57.138;-2.118;2022-10-16T02:12:06;8.80;1.00
29003;DHT22;16102;57.138;-2.118;2022-10-16T02:14:38;8.80;1.00
29003;DHT22;16102;57.138;-2.118;2022-10-16T02:17:14;8.80;1.00
29003;DHT22;16102;57.138;-2.118;2022-10-16T02:19:42;8.80;1.00
29003;DHT22;16102;57.138;-2.118;2022-10-16T02:23:01;8.80;1.00
29003;DHT22;16102;57.138;-2.118;2022-10-16T02:25:12;8.80;1.00
29003;DHT22;16102;57.138;-2.118;2022-10-16T02:30:27;8.80;1.00
29003;DHT22;16102;57.138;-2.118;2022-10-16T02:32:56;8.70;1.00
29003;DHT22;16102;57.138;-2.118;2022-10-16T02:35:25;8.70;1.00
29003;DHT22;16102;57.138;-2.118;2022-10-16T02:37:54;8.70;1.00
29003;DHT22;16102;57.138;-2.118;2022-10-16T02:40:22;8.70;1.00
29003;DHT22;16102;57.138;-2.118;2022-10-16T02:42:52;8.70;1.00
29003;DHT22;16102;57.138;-2.118;2022-10-16T02:45:21;8.70;1.00
29003;DHT22;16102;57.138;-2.118;2022-10-16T02:47:48;8.70;1.00
29003;DHT22;16102;57.138;-2.118;2022-10-16T02:50:16;8.70;1.00
29003;DHT22;16102;57.138;-2.118;2022-10-16T02:52:43;8.70;1.00
29003;DHT22;16102;57.138;-2.118;2022-10-16T02:55:10;8.70;1.00
29003;DHT22;16102;57.138;-2.118;2022-10-16T02:57:37;8.70;1.00
29003;DHT22;16102;57.138;-2.118;2022-10-16T03:00:08;8.70;1.00
29003;DHT22;16102;57.138;-2.118;2022-10-16T03:02:36;8.60;99.90
29003;DHT22;16102;57.138;-2.118;2022-10-16T03:05:04;8.70;99.90
29003;DHT22;16102;57.138;-2.118;2022-10-16T03:07:31;8.60;99.90
29003;DHT22;16102;57.138;-2.118;2022-10-16T03:09:58;8.60;99.90
29003;DHT22;16102;57.138;-2.118;2022-10-16T03:12:27;8.60;99.90
29003;DHT22;16102;57.138;-2.118;2022-10-16T03:14:58;8.50;99.90
29003;DHT22;16102;57.138;-2.118;2022-10-16T03:17:25;8.50;99.90
29003;DHT22;16102;57.138;-2.118;2022-10-16T03:19:52;8.40;99.90
29003;DHT22;16102;57.138;-2.118;2022-10-16T03:22:19;8.40;99.90
29003;DHT22;16102;57.138;-2.118;2022-10-16T03:24:46;8.40;99.90
29003;DHT22;16102;57.138;-2.118;2022-10-16T03:27:13;8.40;99.90
29003;DHT22;16102;57.138;-2.118;2022-10-16T03:29:40;8.30;99.90
29003;DHT22;16102;57.138;-2.118;2022-10-16T03:32:07;8.30;99.90
29003;DHT22;16102;57.138;-2.118;2022-10-16T03:34:33;8.30;99.90
29003;DHT22;16102;57.138;-2.118;2022-10-16T03:37:00;8.20;99.90
29003;DHT22;16102;57.138;-2.118;2022-10-16T03:39:27;8.20;99.90
29003;DHT22;16102;57.138;-2.118;2022-10-16T03:41:54;8.20;99.90
29003;DHT22;16102;57.138;-2.118;2022-10-16T03:44:21;8.10;95.70
29003;DHT22;16102;57.138;-2.118;2022-10-16T03:46:48;8.10;87.20
29003;DHT22;16102;57.138;-2.118;2022-10-16T03:49:15;8.10;73.20
29003;DHT22;16102;57.138;-2.118;2022-10-16T03:51:42;8.10;71.10
29003;DHT22;16102;57.138;-2.118;2022-10-16T03:54:09;8.10;71.40
29003;DHT22;16102;57.138;-2.118;2022-10-16T03:56:37;8.00;87.30
29003;DHT22;16102;57.138;-2.118;2022-10-16T03:59:03;8.00;59.50
29003;DHT22;16102;57.138;-2.118;2022-10-16T04:01:31;8.00;54.40
29003;DHT22;16102;57.138;-2.118;2022-10-16T04:03:57;7.90;55.50
29003;DHT22;16102;57.138;-2.118;2022-10-16T04:06:24;7.90;59.10
29003;DHT22;16102;57.138;-2.118;2022-10-16T04:08:51;7.90;62.00
29003;DHT22;16102;57.138;-2.118;2022-10-16T04:11:18;7.90;62.60
29003;DHT22;16102;57.138;-2.118;2022-10-16T04:13:45;7.80;72.70
29003;DHT22;16102;57.138;-2.118;2022-10-16T04:16:12;7.70;71.60
29003;DHT22;16102;57.138;-2.118;2022-10-16T04:18:39;7.70;74.30
29003;DHT22;16102;57.138;-2.118;2022-10-16T04:21:06;7.70;83.30
29003;DHT22;16102;57.138;-2.118;2022-10-16T04:23:34;7.60;92.80
29003;DHT22;16102;57.138;-2.118;2022-10-16T04:26:01;7.50;97.40
29003;DHT22;16102;57.138;-2.118;2022-10-16T04:28:28;7.40;99.90
29003;DHT22;16102;57.138;-2.118;2022-10-16T04:30:55;7.40;99.90
29003;DHT22;16102;57.138;-2.118;2022-10-16T04:33:22;7.40;99.90
29003;DHT22;16102;57.138;-2.118;2022-10-16T04:35:56;7.30;99.90
29003;DHT22;16102;57.138;-2.118;2022-10-16T04:38:23;7.30;99.90
29003;DHT22;16102;57.138;-2.118;2022-10-16T04:40:50;7.30;99.90
29003;DHT22;16102;57.138;-2.118;2022-10-16T04:43:17;7.20;99.90
29003;DHT22;16102;57.138;-2.118;2022-10-16T04:45:44;7.20;99.90
29003;DHT22;16102;57.138;-2.118;2022-10-16T04:48:11;7.20;93.30
29003;DHT22;16102;57.138;-2.118;2022-10-16T04:50:38;7.20;88.70
29003;DHT22;16102;57.138;-2.118;2022-10-16T04:53:06;7.20;83.60
29003;DHT22;16102;57.138;-2.118;2022-10-16T04:55:33;7.10;74.30
29003;DHT22;16102;57.138;-2.118;2022-10-16T04:58:00;7.10;70.90
29003;DHT22;16102;57.138;-2.118;2022-10-16T05:00:27;7.00;70.50
29003;DHT22;16102;57.138;-2.118;2022-10-16T05:02:54;7.00;70.90
29003;DHT22;16102;57.138;-2.118;2022-10-16T05:05:21;7.00;70.90
29003;DHT22;16102;57.138;-2.118;2022-10-16T05:07:48;7.00;64.60
29003;DHT22;16102;57.138;-2.118;2022-10-16T05:10:16;6.90;61.50
29003;DHT22;16102;57.138;-2.118;2022-10-16T05:12:43;6.90;59.60
29003;DHT22;16102;57.138;-2.118;2022-10-16T05:15:10;6.90;46.30
29003;DHT22;16102;57.138;-2.118;2022-10-16T05:17:37;6.90;49.90
29003;DHT22;16102;57.138;-2.118;2022-10-16T05:20:11;6.80;44.60
29003;DHT22;16102;57.138;-2.118;2022-10-16T05:22:38;6.80;45.30
29003;DHT22;16102;57.138;-2.118;2022-10-16T05:25:05;6.80;52.40
29003;DHT22;16102;57.138;-2.118;2022-10-16T05:27:32;6.80;51.70
29003;DHT22;16102;57.138;-2.118;2022-10-16T05:29:59;6.80;52.90
29003;DHT22;16102;57.138;-2.118;2022-10-16T05:32:26;6.80;47.40
29003;DHT22;16102;57.138;-2.118;2022-10-16T05:34:53;6.80;50.70
29003;DHT22;16102;57.138;-2.118;2022-10-16T05:37:19;6.80;53.70
29003;DHT22;16102;57.138;-2.118;2022-10-16T05:39:46;6.80;66.90
29003;DHT22;16102;57.138;-2.118;2022-10-16T05:42:13;6.80;70.70
29003;DHT22;16102;57.138;-2.118;2022-10-16T05:44:41;6.80;70.90
29003;DHT22;16102;57.138;-2.118;2022-10-16T05:47:08;6.80;87.90
29003;DHT22;16102;57.138;-2.118;2022-10-16T05:49:35;6.80;96.20
29003;DHT22;16102;57.138;-2.118;2022-10-16T05:52:06;6.80;99.90
29003;DHT22;16102;57.138;-2.118;2022-10-16T05:54:33;6.80;99.90
29003;DHT22;16102;57.138;-2.118;2022-10-16T05:57:00;6.80;99.90
29003;DHT22;16102;57.138;-2.118;2022-10-16T05:59:28;6.80;99.90
29003;DHT22;16102;57.138;-2.118;2022-10-16T06:01:55;6.70;99.90
29003;DHT22;16102;57.138;-2.118;2022-10-16T06:04:22;6.70;99.90
29003;DHT22;16102;57.138;-2.118;2022-10-16T06:06:49;6.70;99.90
29003;DHT22;16102;57.138;-2.118;2022-10-16T06:09:16;6.60;99.90
29003;DHT22;16102;57.138;-2.118;2022-10-16T06:11:43;6.60;99.90
29003;DHT22;16102;57.138;-2.118;2022-10-16T06:14:09;6.60;99.90
29003;DHT22;16102;57.138;-2.118;2022-10-16T06:16:37;6.60;99.90
29003;DHT22;16102;57.138;-2.118;2022-10-16T06:19:04;6.60;99.90
29003;DHT22;16102;57.138;-2.118;2022-10-16T06:21:35;6.60;99.90
29003;DHT22;16102;57.138;-2.118;2022-10-16T06:24:03;6.60;99.90
29003;DHT22;16102;57.138;-2.118;2022-10-16T06:26:30;6.60;99.90
29003;DHT22;16102;57.138;-2.118;2022-10-16T06:28:58;6.60;99.90
29003;DHT22;16102;57.138;-2.118;2022-10-16T06:31:26;6.60;99.90
29003;DHT22;16102;57.138;-2.118;2022-10-16T06:33:56;6.60;99.90
29003;DHT22;16102;57.138;-2.118;2022-10-16T06:36:24;6.50;99.90
29003;DHT22;16102;57.138;-2.118;2022-10-16T06:38:52;6.50;99.90
29003;DHT22;16102;57.138;-2.118;2022-10-16T06:41:22;6.50;99.90
29003;DHT22;16102;57.138;-2.118;2022-10-16T06:43:49;6.50;99.90
29003;DHT22;16102;57.138;-2.118;2022-10-16T06:46:18;6.50;99.90
29003;DHT22;16102;57.138;-2.118;2022-10-16T06:48:45;6.50;99.90
29003;DHT22;16102;57.138;-2.118;2022-10-16T06:51:15;6.60;99.90
29003;DHT22;16102;57.138;-2.118;2022-10-16T06:53:51;6.60;99.90
29003;DHT22;16102;57.138;-2.118;2022-10-16T06:56:34;6.60;99.90
29003;DHT22;16102;57.138;-2.118;2022-10-16T06:59:02;6.60;99.90
29003;DHT22;16102;57.138;-2.118;2022-10-16T07:01:29;6.60;99.90
29003;DHT22;16102;57.138;-2.118;2022-10-16T07:03:56;6.60;99.90
29003;DHT22;16102;57.138;-2.118;2022-10-16T07:06:25;6.60;99.90
29003;DHT22;16102;57.138;-2.118;2022-10-16T07:08:53;6.70;99.90
29003;DHT22;16102;57.138;-2.118;2022-10-16T07:11:22;6.60;99.90
29003;DHT22;16102;57.138;-2.118;2022-10-16T07:13:49;6.60;99.90
29003;DHT22;16102;57.138;-2.118;2022-10-16T07:16:29;6.60;99.90
29003;DHT22;16102;57.138;-2.118;2022-10-16T07:18:58;6.60;99.90
29003;DHT22;16102;57.138;-2.118;2022-10-16T07:21:31;6.60;99.90
29003;DHT22;16102;57.138;-2.118;2022-10-16T07:24:03;6.60;99.90
29003;DHT22;16102;57.138;-2.118;2022-10-16T07:26:32;6.60;99.90
29003;DHT22;16102;57.138;-2.118;2022-10-16T07:28:59;6.60;99.90
29003;DHT22;16102;57.138;-2.118;2022-10-16T07:31:27;6.50;99.90
29003;DHT22;16102;57.138;-2.118;2022-10-16T07:33:54;6.50;99.90
29003;DHT22;16102;57.138;-2.118;2022-10-16T07:36:22;6.50;99.90
29003;DHT22;16102;57.138;-2.118;2022-10-16T07:38:49;6.60;99.90
29003;DHT22;16102;57.138;-2.118;2022-10-16T07:41:21;6.60;99.90
29003;DHT22;16102;57.138;-2.118;2022-10-16T07:43:57;6.60;99.90
29003;DHT22;16102;57.138;-2.118;2022-10-16T07:46:27;6.60;99.90
29003;DHT22;16102;57.138;-2.118;2022-10-16T07:48:54;6.60;99.90
29003;DHT22;16102;57.138;-2.118;2022-10-16T07:51:22;6.60;99.90
29003;DHT22;16102;57.138;-2.118;2022-10-16T07:53:50;6.60;99.90
29003;DHT22;16102;57.138;-2.118;2022-10-16T07:56:18;6.70;99.90
29003;DHT22;16102;57.138;-2.118;2022-10-16T07:58:46;6.70;99.90
29003;DHT22;16102;57.138;-2.118;2022-10-16T08:01:14;6.70;99.90
29003;DHT22;16102;57.138;-2.118;2022-10-16T08:03:46;6.70;99.90
29003;DHT22;16102;57.138;-2.118;2022-10-16T08:06:13;6.70;99.90
29003;DHT22;16102;57.138;-2.118;2022-10-16T08:08:40;6.70;99.90
29003;DHT22;16102;57.138;-2.118;2022-10-16T08:11:07;6.70;99.90
29003;DHT22;16102;57.138;-2.118;2022-10-16T08:13:35;6.80;99.90
29003;DHT22;16102;57.138;-2.118;2022-10-16T08:16:02;6.80;99.90
29003;DHT22;16102;57.138;-2.118;2022-10-16T08:18:35;6.80;99.90
29003;DHT22;16102;57.138;-2.118;2022-10-16T08:21:03;6.90;99.90
29003;DHT22;16102;57.138;-2.118;2022-10-16T08:23:31;6.90;99.90
29003;DHT22;16102;57.138;-2.118;2022-10-16T08:26:04;6.90;99.90
29003;DHT22;16102;57.138;-2.118;2022-10-16T08:28:31;7.00;99.90
29003;DHT22;16102;57.138;-2.118;2022-10-16T08:31:13;7.00;99.90
29003;DHT22;16102;57.138;-2.118;2022-10-16T08:33:43;7.00;99.90
29003;DHT22;16102;57.138;-2.118;2022-10-16T08:36:11;7.10;99.90
29003;DHT22;16102;57.138;-2.118;2022-10-16T08:38:38;7.10;99.90
29003;DHT22;16102;57.138;-2.118;2022-10-16T08:49:23;7.50;99.90
29003;DHT22;16102;57.138;-2.118;2022-10-16T08:51:51;7.50;99.90
29003;DHT22;16102;57.138;-2.118;2022-10-16T08:54:28;7.50;99.90
29003;DHT22;16102;57.138;-2.118;2022-10-16T08:57:06;7.70;92.80
29003;DHT22;16102;57.138;-2.118;2022-10-16T08:59:34;7.70;71.50
29003;DHT22;16102;57.138;-2.118;2022-10-16T09:02:01;7.80;46.90
29003;DHT22;16102;57.138;-2.118;2022-10-16T09:16:12;8.50;1.00
29003;DHT22;16102;57.138;-2.118;2022-10-16T09:21:33;8.60;1.00
29003;DHT22;16102;57.138;-2.118;2022-10-16T09:24:13;8.80;1.00
29003;DHT22;16102;57.138;-2.118;2022-10-16T09:26:41;8.80;1.00
29003;DHT22;16102;57.138;-2.118;2022-10-16T09:29:12;8.80;1.00
29003;DHT22;16102;57.138;-2.118;2022-10-16T09:31:40;8.80;1.00
29003;DHT22;16102;57.138;-2.118;2022-10-16T09:34:32;8.90;1.00
29003;DHT22;16102;57.138;-2.118;2022-10-16T09:37:03;9.00;1.00
29003;DHT22;16102;57.138;-2.118;2022-10-16T09:39:30;9.00;1.00
29003;DHT22;16102;57.138;-2.118;2022-10-16T09:41:57;9.00;1.00
29003;DHT22;16102;57.138;-2.118;2022-10-16T09:44:28;9.20;1.00
29003;DHT22;16102;57.138;-2.118;2022-10-16T09:47:03;9.30;1.00
29003;DHT22;16102;57.138;-2.118;2022-10-16T09:49:31;9.40;1.00
29003;DHT22;16102;57.138;-2.118;2022-10-16T09:52:14;9.50;1.00
29003;DHT22;16102;57.138;-2.118;2022-10-16T09:54:55;9.70;1.00
29003;DHT22;16102;57.138;-2.118;2022-10-16T09:57:23;9.90;1.00
29003;DHT22;16102;57.138;-2.118;2022-10-16T09:59:53;10.00;1.00
29003;DHT22;16102;57.138;-2.118;2022-10-16T10:02:29;10.10;1.00
29003;DHT22;16102;57.138;-2.118;2022-10-16T10:04:57;10.20;1.00
29003;DHT22;16102;57.138;-2.118;2022-10-16T10:07:26;10.30;1.00
29003;DHT22;16102;57.138;-2.118;2022-10-16T10:09:56;10.30;1.00
29003;DHT22;16102;57.138;-2.118;2022-10-16T10:12:26;10.40;1.00
29003;DHT22;16102;57.138;-2.118;2022-10-16T10:15:03;10.50;1.00
29003;DHT22;16102;57.138;-2.118;2022-10-16T10:17:31;10.60;1.00
29003;DHT22;16102;57.138;-2.118;2022-10-16T10:22:52;10.80;1.00
29003;DHT22;16102;57.138;-2.118;2022-10-16T10:34:11;11.30;1.00
29003;DHT22;16102;57.138;-2.118;2022-10-16T10:36:52;11.40;1.00
29003;DHT22;16102;57.138;-2.118;2022-10-16T10:39:38;11.80;1.00
29003;DHT22;16102;57.138;-2.118;2022-10-16T10:42:40;12.00;1.00
29003;DHT22;16102;57.138;-2.118;2022-10-16T10:45:24;12.20;1.00
29003;DHT22;16102;57.138;-2.118;2022-10-16T10:48:21;12.30;1.00
29003;DHT22;16102;57.138;-2.118;2022-10-16T10:51:00;12.40;1.00
29003;DHT22;16102;57.138;-2.118;2022-10-16T10:53:43;12.50;99.90
29003;DHT22;16102;57.138;-2.118;2022-10-16T10:56:56;12.60;99.90
29003;DHT22;16102;57.138;-2.118;2022-10-16T11:07:49;13.20;99.90
29003;DHT22;16102;57.138;-2.118;2022-10-16T11:11:06;13.40;99.90
29003;DHT22;16102;57.138;-2.118;2022-10-16T11:15:48;13.80;99.90
29003;DHT22;16102;57.138;-2.118;2022-10-16T11:18:23;13.80;99.90
29003;DHT22;16102;57.138;-2.118;2022-10-16T11:20:54;14.20;99.90
29003;DHT22;16102;57.138;-2.118;2022-10-16T11:23:30;14.20;99.90
29003;DHT22;16102;57.138;-2.118;2022-10-16T11:26:04;14.00;99.90
29003;DHT22;16102;57.138;-2.118;2022-10-16T11:28:37;14.00;99.90
29003;DHT22;16102;57.138;-2.118;2022-10-16T11:31:16;13.90;99.90
29003;DHT22;16102;57.138;-2.118;2022-10-16T11:33:49;14.20;99.90
29003;DHT22;16102;57.138;-2.118;2022-10-16T11:47:44;14.70;99.90
29003;DHT22;16102;57.138;-2.118;2022-10-16T11:53:20;15.20;99.90
29003;DHT22;16102;57.138;-2.118;2022-10-16T11:55:48;15.50;99.90
29003;DHT22;16102;57.138;-2.118;2022-10-16T12:00:58;16.30;99.90
29003;DHT22;16102;57.138;-2.118;2022-10-16T12:03:35;16.70;99.90
29003;DHT22;16102;57.138;-2.118;2022-10-16T12:08:59;16.70;99.90
29003;DHT22;16102;57.138;-2.118;2022-10-16T12:11:38;16.60;99.90
29003;DHT22;16102;57.138;-2.118;2022-10-16T12:16:32;15.50;99.90
29003;DHT22;16102;57.138;-2.118;2022-10-16T12:19:16;15.30;99.90
29003;DHT22;16102;57.138;-2.118;2022-10-16T12:21:44;16.00;99.90
29003;DHT22;16102;57.138;-2.118;2022-10-16T12:24:38;16.40;99.90
29003;DHT22;16102;57.138;-2.118;2022-10-16T12:27:18;17.40;99.90
29003;DHT22;16102;57.138;-2.118;2022-10-16T12:29:47;20.00;99.90
29003;DHT22;16102;57.138;-2.118;2022-10-16T12:32:36;21.00;99.90
29003;DHT22;16102;57.138;-2.118;2022-10-16T12:35:20;20.70;99.90
29003;DHT22;16102;57.138;-2.118;2022-10-16T12:37:49;19.50;99.90
29003;DHT22;16102;57.138;-2.118;2022-10-16T12:40:26;20.70;99.90
29003;DHT22;16102;57.138;-2.118;2022-10-16T12:42:54;18.90;99.90
29003;DHT22;16102;57.138;-2.118;2022-10-16T12:47:53;17.90;99.90
29003;DHT22;16102;57.138;-2.118;2022-10-16T12:52:59;17.50;99.90
29003;DHT22;16102;57.138;-2.118;2022-10-16T12:55:33;17.40;99.90
29003;DHT22;16102;57.138;-2.118;2022-10-16T13:01:02;18.40;99.90
29003;DHT22;16102;57.138;-2.118;2022-10-16T13:12:54;17.60;99.90
29003;DHT22;16102;57.138;-2.118;2022-10-16T13:15:43;18.40;99.90
29003;DHT22;16102;57.138;-2.118;2022-10-16T13:29:06;20.50;99.90
29003;DHT22;16102;57.138;-2.118;2022-10-16T13:31:33;19.70;99.90
29003;DHT22;16102;57.138;-2.118;2022-10-16T13:34:01;20.50;99.90
29003;DHT22;16102;57.138;-2.118;2022-10-16T13:36:47;20.00;99.90
29003;DHT22;16102;57.138;-2.118;2022-10-16T13:39:28;19.60;99.90
29003;DHT22;16102;57.138;-2.118;2022-10-16T13:42:09;20.30;99.90
29003;DHT22;16102;57.138;-2.118;2022-10-16T13:44:46;19.70;99.90
29003;DHT22;16102;57.138;-2.118;2022-10-16T13:47:21;20.80;99.90
29003;DHT22;16102;57.138;-2.118;2022-10-16T13:50:21;21.80;99.90
29003;DHT22;16102;57.138;-2.118;2022-10-16T13:52:48;21.40;99.90
29003;DHT22;16102;57.138;-2.118;2022-10-16T13:55:18;20.30;99.90
29003;DHT22;16102;57.138;-2.118;2022-10-16T13:57:45;19.30;99.90
29003;DHT22;16102;57.138;-2.118;2022-10-16T14:00:26;19.60;99.90
29003;DHT22;16102;57.138;-2.118;2022-10-16T14:03:05;19.60;99.90
29003;DHT22;16102;57.138;-2.118;2022-10-16T14:05:33;19.80;99.90
29003;DHT22;16102;57.138;-2.118;2022-10-16T14:08:01;19.00;99.90
29003;DHT22;16102;57.138;-2.118;2022-10-16T14:10:31;20.80;99.90
29003;DHT22;16102;57.138;-2.118;2022-10-16T14:13:05;20.30;99.90
29003;DHT22;16102;57.138;-2.118;2022-10-16T14:15:34;20.60;99.90
29003;DHT22;16102;57.138;-2.118;2022-10-16T14:18:02;21.70;99.90
29003;DHT22;16102;57.138;-2.118;2022-10-16T14:20:32;20.20;99.90
29003;DHT22;16102;57.138;-2.118;2022-10-16T14:23:05;20.40;99.90
29003;DHT22;16102;57.138;-2.118;2022-10-16T14:25:45;20.20;99.90
29003;DHT22;16102;57.138;-2.118;2022-10-16T14:28:22;21.00;99.90
29003;DHT22;16102;57.138;-2.118;2022-10-16T14:30:58;22.10;99.90
29003;DHT22;16102;57.138;-2.118;2022-10-16T14:33:33;22.70;99.90
29003;DHT22;16102;57.138;-2.118;2022-10-16T14:36:13;20.60;99.90
29003;DHT22;16102;57.138;-2.118;2022-10-16T14:41:22;21.30;99.90
29003;DHT22;16102;57.138;-2.118;2022-10-16T14:43:52;19.80;99.90
29003;DHT22;16102;57.138;-2.118;2022-10-16T14:46:23;19.30;99.90
29003;DHT22;16102;57.138;-2.118;2022-10-16T14:51:35;21.20;99.90
29003;DHT22;16102;57.138;-2.118;2022-10-16T14:54:03;22.00;99.90
29003;DHT22;16102;57.138;-2.118;2022-10-16T14:59:25;25.40;99.90
29003;DHT22;16102;57.138;-2.118;2022-10-16T15:01:53;27.20;99.90
29003;DHT22;16102;57.138;-2.118;2022-10-16T15:04:20;27.80;99.90
29003;DHT22;16102;57.138;-2.118;2022-10-16T15:06:47;27.30;99.90
29003;DHT22;16102;57.138;-2.118;2022-10-16T15:09:14;26.60;99.90
29003;DHT22;16102;57.138;-2.118;2022-10-16T15:11:41;25.00;99.90
29003;DHT22;16102;57.138;-2.118;2022-10-16T15:14:12;22.70;99.90
29003;DHT22;16102;57.138;-2.118;2022-10-16T15:16:40;21.90;99.90
29003;DHT22;16102;57.138;-2.118;2022-10-16T15:19:07;22.80;99.90
29003;DHT22;16102;57.138;-2.118;2022-10-16T15:21:34;23.20;99.90
29003;DHT22;16102;57.138;-2.118;2022-10-16T15:24:01;23.70;99.90
29003;DHT22;16102;57.138;-2.118;2022-10-16T15:26:29;23.00;99.90
29003;DHT22;16102;57.138;-2.118;2022-10-16T15:28:57;23.00;99.90
29003;DHT22;16102;57.138;-2.118;2022-10-16T15:31:24;20.50;99.90
29003;DHT22;16102;57.138;-2.118;2022-10-16T15:33:52;19.10;99.90
29003;DHT22;16102;57.138;-2.118;2022-10-16T15:36:28;18.90;99.90
29003;DHT22;16102;57.138;-2.118;2022-10-16T15:38:56;18.00;99.90
29003;DHT22;16102;57.138;-2.118;2022-10-16T15:41:23;18.50;99.90
29003;DHT22;16102;57.138;-2.118;2022-10-16T15:43:51;18.60;99.90
29003;DHT22;16102;57.138;-2.118;2022-10-16T15:46:21;18.10;99.90
29003;DHT22;16102;57.138;-2.118;2022-10-16T15:48:49;17.90;99.90
29003;DHT22;16102;57.138;-2.118;2022-10-16T15:51:17;17.70;99.90
29003;DHT22;16102;57.138;-2.118;2022-10-16T15:53:44;17.60;99.90
29003;DHT22;16102;57.138;-2.118;2022-10-16T15:56:14;17.40;99.90
29003;DHT22;16102;57.138;-2.118;2022-10-16T15:58:41;17.40;99.90
29003;DHT22;16102;57.138;-2.118;2022-10-16T16:01:08;17.30;99.90
29003;DHT22;16102;57.138;-2.118;2022-10-16T16:03:38;17.10;99.90
29003;DHT22;16102;57.138;-2.118;2022-10-16T16:06:09;17.10;99.90
29003;DHT22;16102;57.138;-2.118;2022-10-16T16:08:37;16.80;99.90
29003;DHT22;16102;57.138;-2.118;2022-10-16T16:11:05;16.10;99.90
29003;DHT22;16102;57.138;-2.118;2022-10-16T16:13:32;16.00;99.90
29003;DHT22;16102;57.138;-2.118;2022-10-16T16:15:59;16.10;99.90
29003;DHT22;16102;57.138;-2.118;2022-10-16T16:18:26;15.70;99.90
29003;DHT22;16102;57.138;-2.118;2022-10-16T16:20:55;15.50;99.90
29003;DHT22;16102;57.138;-2.118;2022-10-16T16:23:22;15.40;99.90
29003;DHT22;16102;57.138;-2.118;2022-10-16T16:26:13;15.10;99.90
29003;DHT22;16102;57.138;-2.118;2022-10-16T16:28:42;14.80;99.90
29003;DHT22;16102;57.138;-2.118;2022-10-16T16:31:09;14.70;99.90
29003;DHT22;16102;57.138;-2.118;2022-10-16T16:33:36;14.50;99.90
29003;DHT22;16102;57.138;-2.118;2022-10-16T16:36:05;14.60;99.90
29003;DHT22;16102;57.138;-2.118;2022-10-16T16:38:40;14.80;99.90
29003;DHT22;16102;57.138;-2.118;2022-10-16T16:41:13;14.80;99.90
29003;DHT22;16102;57.138;-2.118;2022-10-16T16:43:41;14.70;99.90
29003;DHT22;16102;57.138;-2.118;2022-10-16T16:46:08;14.60;99.90
29003;DHT22;16102;57.138;-2.118;2022-10-16T16:48:37;14.50;99.90
29003;DHT22;16102;57.138;-2.118;2022-10-16T16:51:06;14.50;99.90
29003;DHT22;16102;57.138;-2.118;2022-10-16T16:53:36;14.50;99.90
29003;DHT22;16102;57.138;-2.118;2022-10-16T16:56:07;14.40;99.90
29003;DHT22;16102;57.138;-2.118;2022-10-16T16:58:34;14.60;99.90
29003;DHT22;16102;57.138;-2.118;2022-10-16T17:01:02;14.80;99.90
29003;DHT22;16102;57.138;-2.118;2022-10-16T17:03:49;14.70;99.90
29003;DHT22;16102;57.138;-2.118;2022-10-16T17:06:24;14.70;99.90
29003;DHT22;16102;57.138;-2.118;2022-10-16T17:08:51;14.60;99.90
29003;DHT22;16102;57.138;-2.118;2022-10-16T17:11:24;14.40;99.90
29003;DHT22;16102;57.138;-2.118;2022-10-16T17:13:52;14.40;99.90
29003;DHT22;16102;57.138;-2.118;2022-10-16T17:16:29;14.40;99.90
29003;DHT22;16102;57.138;-2.118;2022-10-16T17:18:59;14.50;99.90
29003;DHT22;16102;57.138;-2.118;2022-10-16T17:21:26;14.30;99.90
29003;DHT22;16102;57.138;-2.118;2022-10-16T17:23:56;14.10;99.90
29003;DHT22;16102;57.138;-2.118;2022-10-16T17:26:23;13.90;99.90
29003;DHT22;16102;57.138;-2.118;2022-10-16T17:28:52;13.80;99.90
29003;DHT22;16102;57.138;-2.118;2022-10-16T17:31:23;13.60;99.90
29003;DHT22;16102;57.138;-2.118;2022-10-16T17:33:51;13.20;99.90
29003;DHT22;16102;57.138;-2.118;2022-10-16T17:36:19;13.20;99.90
29003;DHT22;16102;57.138;-2.118;2022-10-16T17:38:46;12.90;99.90
29003;DHT22;16102;57.138;-2.118;2022-10-16T17:41:22;12.80;99.90
29003;DHT22;16102;57.138;-2.118;2022-10-16T17:43:51;12.70;99.90
29003;DHT22;16102;57.138;-2.118;2022-10-16T17:46:21;12.70;99.90
29003;DHT22;16102;57.138;-2.118;2022-10-16T17:48:51;12.70;99.90
29003;DHT22;16102;57.138;-2.118;2022-10-16T17:51:25;12.60;99.90
29003;DHT22;16102;57.138;-2.118;2022-10-16T17:53:54;12.80;99.90
29003;DHT22;16102;57.138;-2.118;2022-10-16T17:56:22;12.60;99.90
29003;DHT22;16102;57.138;-2.118;2022-10-16T17:58:52;12.80;99.90